Terminal Aerodrome Forecast
Issued by NWS Binghamton, NY

Home | Current Version | Previous Version | Text Only | Print | Product List | Glossary On
Versions: 1 2 3 4 5 6 7 8 9 10 11 12 13 14 15 16 17 18 19 20
000
FTUS41 KBGM 211700
TAFAVP
TAF
KAVP 211731Z 2118/2218 24003KT P6SM -SHRA SCT025 OVC045
      TEMPO 2122/2202 OVC025
     FM220200 VRB03KT P6SM -SHRA OVC025
     FM220600 02004KT 4SM BR OVC015
     FM221500 03006KT P6SM OVC015=

USA.gov is the U.S. government's official web portal to all federal, state and local government web resources and services.